Terminal Aerodrome Forecast
Issued by NWS

Home | Current Version | Previous Version | Text Only | Print | Product List | Glossary On
Versions: 1 2 3 4 5 6 7 8 9 10 11 12 13 14 15 16 17 18 19
000
FTUS43 KGRB 161800 AAA
TAFCWA
TAF AMD
KCWA 161800Z 1618/1718 11013G20KT P6SM -SN OVC011
     FM161900 11012G18KT P6SM SCT015 OVC080
     FM170000 12013G20KT P6SM -RASN SCT015 OVC030
      TEMPO 1702/1706 4SM -RASN BR BKN015
     FM170600 13012KT 2SM -SN BR OVC010 WS015/16040KT
     FM171400 18007KT P6SM -RASN OVC007=

USA.gov is the U.S. government's official web portal to all federal, state and local government web resources and services.